createdAt,value
2022-11-13T00:00:05.835Z,7.20
2022-11-13T00:02:40.853Z,6.97
2022-11-13T00:05:14.854Z,7.15
2022-11-13T00:07:41.733Z,6.38
2022-11-13T00:10:09.046Z,6.18
2022-11-13T00:12:44.862Z,6.72
2022-11-13T00:15:17.879Z,5.65
2022-11-13T00:17:45.514Z,5.57
2022-11-13T00:20:18.920Z,5.25
2022-11-13T00:22:45.955Z,5.35
2022-11-13T00:25:19.879Z,5.82
2022-11-13T00:27:46.791Z,6.30
2022-11-13T00:30:19.895Z,5.65
2022-11-13T00:32:46.683Z,7.22
2022-11-13T00:35:13.513Z,5.82
2022-11-13T00:37:46.890Z,5.28
2022-11-13T00:40:19.887Z,6.63
2022-11-13T00:42:46.630Z,4.85
2022-11-13T00:45:20.986Z,6.47
2022-11-13T00:47:47.820Z,5.68
2022-11-13T00:50:14.550Z,6.28
2022-11-13T00:52:50.912Z,6.50
2022-11-13T00:55:17.653Z,6.80
2022-11-13T00:57:58.913Z,6.10
2022-11-13T01:00:25.707Z,6.55
2022-11-13T01:03:05.923Z,5.70
2022-11-13T01:05:36.273Z,6.30
2022-11-13T01:08:09.952Z,5.45
2022-11-13T01:10:41.354Z,6.10
2022-11-13T01:13:22.977Z,5.40
2022-11-13T01:15:49.768Z,5.88
2022-11-13T01:18:16.657Z,5.53
2022-11-13T01:20:50.048Z,6.25
2022-11-13T01:23:22.964Z,6.32
2022-11-13T01:25:49.692Z,6.40
2022-11-13T01:28:26.296Z,5.28
2022-11-13T01:30:53.219Z,5.88
2022-11-13T01:33:20.257Z,5.07
2022-11-13T01:35:53.978Z,6.13
2022-11-13T01:38:27.495Z,6.50
2022-11-13T01:41:00.972Z,6.22
2022-11-13T01:43:32.515Z,6.45
2022-11-13T01:46:05.988Z,7.10
2022-11-13T01:48:41.788Z,6.03
2022-11-13T01:51:23.008Z,6.07
2022-11-13T01:53:50.368Z,6.63
2022-11-13T01:56:17.580Z,6.05
2022-11-13T01:58:55.050Z,5.72
2022-11-13T02:01:21.874Z,6.30
2022-11-13T02:04:02.230Z,5.95
2022-11-13T02:06:42.169Z,5.97
2022-11-13T02:09:17.026Z,5.97
2022-11-13T02:11:51.116Z,5.78
2022-11-13T02:14:26.045Z,6.90
2022-11-13T02:16:56.840Z,8.00
2022-11-13T02:19:36.058Z,6.75
2022-11-13T02:22:36.067Z,7.00
2022-11-13T02:25:11.044Z,6.78
2022-11-13T02:27:47.135Z,6.90
2022-11-13T02:30:37.117Z,6.57
2022-11-13T02:33:29.947Z,6.75
2022-11-13T02:36:04.060Z,6.75
2022-11-13T02:38:39.092Z,6.68
2022-11-13T02:41:05.843Z,6.82
2022-11-13T02:43:41.061Z,8.43
2022-11-13T02:46:14.110Z,6.70
2022-11-13T02:48:44.301Z,7.10
2022-11-13T02:51:18.124Z,6.38
2022-11-13T02:53:44.991Z,6.80
2022-11-13T02:56:11.806Z,6.18
2022-11-13T02:58:45.121Z,5.40
2022-11-13T03:01:11.897Z,6.32
2022-11-13T03:03:59.263Z,5.95
2022-11-13T03:06:26.051Z,6.20
2022-11-13T03:09:01.202Z,5.00
2022-11-13T03:11:28.053Z,5.40
2022-11-13T03:14:01.134Z,5.38
2022-11-13T03:16:27.932Z,6.03
2022-11-13T03:18:56.103Z,6.43
2022-11-13T03:21:29.197Z,5.72
2022-11-13T03:23:56.220Z,5.28
2022-11-13T03:26:30.154Z,6.35
2022-11-13T03:29:03.161Z,4.80
2022-11-13T03:31:38.205Z,5.32
2022-11-13T03:34:11.160Z,5.32
2022-11-13T03:36:38.568Z,5.28
2022-11-13T03:39:05.708Z,5.32
2022-11-13T03:41:39.162Z,4.95
2022-11-13T03:44:12.223Z,5.25
2022-11-13T03:46:38.977Z,5.03
2022-11-13T03:49:12.171Z,5.40
2022-11-13T03:51:45.187Z,5.25
2022-11-13T03:54:11.935Z,5.20
2022-11-13T03:56:46.227Z,6.68
2022-11-13T03:59:13.023Z,4.50
2022-11-13T04:01:39.843Z,6.07
2022-11-13T04:04:13.237Z,5.53
2022-11-13T04:06:40.088Z,5.13
2022-11-13T04:09:14.196Z,5.40
2022-11-13T04:11:40.985Z,6.78
2022-11-13T04:14:14.203Z,6.20
2022-11-13T04:16:41.078Z,7.00
2022-11-13T04:19:14.281Z,6.75
2022-11-13T04:21:48.233Z,5.95
2022-11-13T04:24:15.010Z,6.55
2022-11-13T04:26:48.261Z,5.88
2022-11-13T04:29:15.065Z,5.40
2022-11-13T04:31:43.374Z,5.45
2022-11-13T04:34:17.238Z,5.63
2022-11-13T04:36:50.276Z,5.20
2022-11-13T04:39:17.044Z,5.78
2022-11-13T04:42:16.254Z,5.82
2022-11-13T04:44:43.124Z,6.32
2022-11-13T04:47:17.274Z,5.53
2022-11-13T04:49:50.274Z,5.50
2022-11-13T04:52:24.341Z,5.40
2022-11-13T04:54:57.278Z,4.65
2022-11-13T04:57:24.772Z,6.43
2022-11-13T04:59:51.570Z,6.53
2022-11-13T05:02:25.293Z,6.30
2022-11-13T05:05:05.176Z,7.50
2022-11-13T05:07:42.651Z,6.88
2022-11-13T05:10:19.341Z,7.50
2022-11-13T05:12:46.088Z,5.90
2022-11-13T05:15:13.075Z,6.00
2022-11-13T05:17:46.318Z,6.60
2022-11-13T05:20:13.313Z,6.20
2022-11-13T05:22:40.485Z,5.00
2022-11-13T05:25:15.438Z,6.10
2022-11-13T05:27:47.297Z,5.90
2022-11-13T05:30:20.325Z,5.95
2022-11-13T05:32:53.439Z,6.03
2022-11-13T05:35:20.390Z,5.32
2022-11-13T05:37:48.372Z,5.95
2022-11-13T05:40:21.364Z,6.15
2022-11-13T05:42:48.190Z,5.93
2022-11-13T05:45:15.196Z,6.50
2022-11-13T05:47:48.356Z,5.50
2022-11-13T05:50:15.352Z,6.10
2022-11-13T05:52:48.497Z,5.97
2022-11-13T05:55:15.651Z,6.28
2022-11-13T05:57:42.518Z,6.28
2022-11-13T06:00:16.351Z,5.88
2022-11-13T06:02:44.048Z,6.43
2022-11-13T06:05:17.378Z,6.88
2022-11-13T06:07:50.381Z,6.45
2022-11-13T06:10:23.475Z,6.97
2022-11-13T06:12:50.319Z,7.25
2022-11-13T06:15:23.591Z,6.45
2022-11-13T06:17:50.331Z,7.65
2022-11-13T06:20:17.209Z,7.40
2022-11-13T06:22:51.448Z,6.97
2022-11-13T06:25:18.292Z,7.72
2022-11-13T06:27:45.143Z,6.47
2022-11-13T06:30:20.519Z,7.15
2022-11-13T06:33:00.532Z,7.97
2022-11-13T06:35:33.482Z,7.22
2022-11-13T06:38:08.494Z,8.00
2022-11-13T06:40:38.448Z,7.45
2022-11-13T06:43:12.614Z,7.30
2022-11-13T06:45:39.541Z,6.60
2022-11-13T06:48:13.460Z,6.68
2022-11-13T06:50:43.297Z,6.10
2022-11-13T06:53:19.474Z,6.30
2022-11-13T06:55:48.648Z,5.65
2022-11-13T06:58:22.466Z,5.43
2022-11-13T07:00:50.023Z,5.68
2022-11-13T07:03:29.468Z,5.80
2022-11-13T07:06:02.526Z,5.82
2022-11-13T07:08:29.973Z,5.60
2022-11-13T07:11:04.485Z,6.13
2022-11-13T07:13:31.203Z,5.75
2022-11-13T07:16:16.323Z,5.65
2022-11-13T07:18:55.510Z,5.55
2022-11-13T07:21:29.879Z,4.82
2022-11-13T07:23:57.327Z,4.85
2022-11-13T07:26:30.599Z,4.85
2022-11-13T07:28:57.543Z,4.68
2022-11-13T07:31:24.461Z,4.97
2022-11-13T07:33:59.529Z,4.70
2022-11-13T07:36:32.698Z,4.45
2022-11-13T07:39:00.439Z,4.50
2022-11-13T07:41:27.328Z,4.38
2022-11-13T07:44:03.425Z,4.88
2022-11-13T07:46:33.387Z,4.78
2022-11-13T07:49:10.580Z,5.00
2022-11-13T07:51:37.418Z,7.22
2022-11-13T07:54:05.405Z,7.18
2022-11-13T07:56:38.582Z,6.85
2022-11-13T07:59:11.692Z,6.70
2022-11-13T08:01:45.580Z,7.05
2022-11-13T08:04:12.426Z,7.35
2022-11-13T08:06:46.638Z,6.20
2022-11-13T08:09:13.502Z,6.05
2022-11-13T08:11:40.621Z,6.30
2022-11-13T08:14:13.585Z,5.78
2022-11-13T08:16:46.630Z,6.38
2022-11-13T08:19:13.509Z,5.00
2022-11-13T08:21:46.630Z,4.70
2022-11-13T08:24:13.507Z,4.82
2022-11-13T08:26:46.630Z,5.22
2022-11-13T08:29:20.609Z,5.07
2022-11-13T08:31:47.412Z,4.45
2022-11-13T08:34:21.621Z,5.03
2022-11-13T08:36:55.636Z,4.35
2022-11-13T08:39:28.640Z,5.93
2022-11-13T08:41:55.386Z,6.22
2022-11-13T08:44:28.625Z,5.57
2022-11-13T08:46:58.589Z,4.70
2022-11-13T08:49:31.645Z,5.53
2022-11-13T08:51:58.582Z,6.15
2022-11-13T08:54:31.656Z,6.07
2022-11-13T08:57:03.328Z,6.13
2022-11-13T08:59:45.665Z,5.88
2022-11-13T09:02:21.660Z,5.03
2022-11-13T09:04:48.405Z,5.00
2022-11-13T09:07:27.352Z,4.68
2022-11-13T09:09:54.458Z,4.25
2022-11-13T09:12:28.684Z,4.50
2022-11-13T09:14:55.492Z,3.70
2022-11-13T09:17:28.699Z,4.25
2022-11-13T09:19:56.217Z,4.22
2022-11-13T09:22:31.683Z,5.22
2022-11-13T09:24:58.563Z,3.78
2022-11-13T09:27:31.741Z,4.82
2022-11-13T09:30:04.750Z,4.53
2022-11-13T09:32:39.719Z,3.50
2022-11-13T09:35:06.946Z,4.07
2022-11-13T09:37:44.755Z,4.22
2022-11-13T09:40:24.919Z,4.28
2022-11-13T09:43:01.789Z,4.00
2022-11-13T09:45:36.741Z,3.83
2022-11-13T09:48:28.075Z,4.05
2022-11-13T09:50:56.468Z,4.63
2022-11-13T09:53:41.736Z,4.30
2022-11-13T09:56:40.450Z,4.03
2022-11-13T09:59:41.764Z,3.42
2022-11-13T10:02:14.815Z,3.53
2022-11-13T10:05:04.644Z,4.47
2022-11-13T10:07:44.840Z,3.60
2022-11-13T10:10:42.792Z,4.25
2022-11-13T10:13:14.406Z,4.40
2022-11-13T10:15:50.805Z,5.32
2022-11-13T10:18:27.546Z,4.43
2022-11-13T10:21:14.813Z,4.05
2022-11-13T10:23:48.278Z,3.55
2022-11-13T10:26:27.819Z,3.88
2022-11-13T10:29:24.875Z,3.75
2022-11-13T10:32:01.844Z,4.00
2022-11-13T10:34:35.810Z,3.83
2022-11-13T10:37:21.306Z,3.20
2022-11-13T10:39:55.798Z,2.97
2022-11-13T10:42:42.837Z,3.33
2022-11-13T10:45:18.052Z,3.40
2022-11-13T10:48:04.319Z,3.53
2022-11-13T10:50:33.095Z,2.97
2022-11-13T10:53:06.825Z,3.20
2022-11-13T10:55:41.477Z,4.03
2022-11-13T10:58:23.840Z,3.50
2022-11-13T11:00:52.516Z,3.70
2022-11-13T11:03:35.872Z,3.63
2022-11-13T11:06:04.613Z,3.25
2022-11-13T11:08:40.876Z,3.17
2022-11-13T11:11:39.871Z,3.15
2022-11-13T11:14:36.929Z,2.67
2022-11-13T11:17:18.863Z,3.10
2022-11-13T11:19:53.112Z,2.67
2022-11-13T11:22:30.946Z,2.53
2022-11-13T11:25:11.392Z,3.20
2022-11-13T11:27:52.905Z,3.25
2022-11-13T11:30:21.987Z,2.75
2022-11-13T11:33:06.893Z,2.85
2022-11-13T11:35:56.742Z,3.45
2022-11-13T11:38:48.890Z,3.17
2022-11-13T11:41:20.280Z,2.95
2022-11-13T11:44:08.918Z,3.05
2022-11-13T11:46:36.313Z,2.80
2022-11-13T11:49:09.948Z,2.97
2022-11-13T11:52:09.895Z,2.80
2022-11-13T11:54:57.960Z,2.90
2022-11-13T11:57:49.066Z,2.63
2022-11-13T12:00:26.951Z,2.90
2022-11-13T12:03:31.010Z,3.00
2022-11-13T12:06:23.987Z,3.60
2022-11-13T12:09:10.938Z,2.70
2022-11-13T12:11:55.015Z,3.78
2022-11-13T12:14:44.959Z,3.20
2022-11-13T12:17:36.957Z,3.28
2022-11-13T12:20:35.013Z,3.25
2022-11-13T12:23:22.988Z,3.10
2022-11-13T12:26:03.043Z,2.63
2022-11-13T12:28:52.980Z,3.15
2022-11-13T12:31:39.009Z,2.47
2022-11-13T12:34:15.004Z,3.00
2022-11-13T12:36:48.007Z,3.22
2022-11-13T12:39:36.145Z,3.03
2022-11-13T12:42:40.990Z,2.97
2022-11-13T12:45:33.705Z,2.63
2022-11-13T12:48:30.534Z,3.33
2022-11-13T12:51:11.011Z,3.25
2022-11-13T12:54:03.050Z,3.03
2022-11-13T12:56:34.235Z,3.25
2022-11-13T12:59:40.050Z,3.55
2022-11-13T13:02:40.650Z,3.13
2022-11-13T13:05:45.094Z,2.90
2022-11-13T13:09:07.052Z,3.55
2022-11-13T13:11:48.722Z,2.85
2022-11-13T13:14:59.163Z,3.37
2022-11-13T13:17:26.573Z,2.80
2022-11-13T13:20:22.124Z,3.10
2022-11-13T13:23:08.470Z,3.00
2022-11-13T13:25:43.098Z,2.38
2022-11-13T13:28:24.556Z,2.70
2022-11-13T13:31:12.753Z,2.20
2022-11-13T13:33:48.522Z,2.72
2022-11-13T13:36:54.087Z,2.58
2022-11-13T13:40:08.154Z,2.30
2022-11-13T13:42:52.083Z,2.00
2022-11-13T13:45:36.044Z,2.30
2022-11-13T13:48:15.149Z,2.33
2022-11-13T13:50:55.399Z,2.60
2022-11-13T13:53:43.197Z,2.53
2022-11-13T13:56:20.447Z,2.53
2022-11-13T13:58:55.197Z,2.28
2022-11-13T14:01:34.008Z,2.60
2022-11-13T14:04:21.262Z,2.60
2022-11-13T14:06:57.312Z,2.65
2022-11-13T14:09:33.150Z,2.60
2022-11-13T14:12:09.559Z,3.08
2022-11-13T14:14:46.209Z,3.25
2022-11-13T14:17:29.407Z,2.80
2022-11-13T14:20:07.190Z,3.40
2022-11-13T14:22:34.209Z,3.50
2022-11-13T14:25:08.220Z,3.10
2022-11-13T14:27:41.238Z,2.83
2022-11-13T14:30:26.309Z,2.50
2022-11-13T14:33:01.188Z,2.90
2022-11-13T14:35:34.221Z,2.40
2022-11-13T14:38:06.183Z,2.30
2022-11-13T14:40:46.239Z,2.60
2022-11-13T14:43:30.428Z,2.30
2022-11-13T14:46:10.239Z,2.63
2022-11-13T14:48:44.230Z,2.63
2022-11-13T14:51:26.845Z,3.10
2022-11-13T14:54:08.745Z,3.08
2022-11-13T14:56:39.020Z,2.65
2022-11-13T14:59:34.199Z,2.42
2022-11-13T15:02:01.112Z,2.80
2022-11-13T15:04:40.471Z,2.67
2022-11-13T15:07:37.324Z,2.33
2022-11-13T15:10:05.271Z,2.38
2022-11-13T15:12:47.248Z,2.55
2022-11-13T15:15:25.230Z,2.00
2022-11-13T15:17:52.673Z,2.65
2022-11-13T15:20:37.283Z,2.40
2022-11-13T15:23:11.244Z,2.60
2022-11-13T15:25:38.050Z,2.85
2022-11-13T15:28:21.326Z,2.35
2022-11-13T15:30:57.271Z,2.20
2022-11-13T15:33:30.590Z,2.40
2022-11-13T15:35:57.562Z,1.98
2022-11-13T15:38:31.244Z,2.10
2022-11-13T15:41:04.282Z,2.08
2022-11-13T15:43:37.269Z,2.25
2022-11-13T15:46:04.132Z,2.10
2022-11-13T15:48:37.309Z,2.45
2022-11-13T15:51:11.258Z,2.20
2022-11-13T15:53:50.360Z,2.00
2022-11-13T15:56:27.287Z,2.00
2022-11-13T15:58:54.239Z,2.55
2022-11-13T16:01:28.399Z,2.03
2022-11-13T16:03:58.120Z,2.45
2022-11-13T16:06:32.334Z,2.10
2022-11-13T16:08:59.220Z,2.55
2022-11-13T16:11:26.475Z,2.05
2022-11-13T16:13:59.352Z,2.20
2022-11-13T16:16:41.356Z,2.33
2022-11-13T16:19:24.242Z,2.08
2022-11-13T16:21:58.435Z,2.42
2022-11-13T16:24:25.298Z,2.60
2022-11-13T16:26:56.522Z,1.92
2022-11-13T16:29:31.325Z,2.63
2022-11-13T16:31:58.177Z,2.92
2022-11-13T16:34:25.052Z,2.90
2022-11-13T16:36:58.522Z,2.67
2022-11-13T16:39:25.439Z,3.00
2022-11-13T16:41:52.155Z,2.70
2022-11-13T16:44:25.494Z,4.38
2022-11-13T16:46:55.467Z,3.00
2022-11-13T16:49:22.406Z,3.60
2022-11-13T16:51:56.426Z,3.28
2022-11-13T16:54:29.509Z,3.22
2022-11-13T16:56:56.621Z,3.35
2022-11-13T16:59:23.394Z,2.95
2022-11-13T17:02:01.427Z,3.15
2022-11-13T17:04:29.774Z,3.00
2022-11-13T17:07:03.436Z,3.13
2022-11-13T17:09:30.375Z,2.88
2022-11-13T17:12:04.456Z,2.75
2022-11-13T17:14:31.402Z,2.97
2022-11-13T17:16:59.656Z,2.80
2022-11-13T17:19:33.433Z,3.05
2022-11-13T17:22:01.359Z,3.20
2022-11-13T17:24:28.185Z,4.78
2022-11-13T17:27:01.430Z,4.30
2022-11-13T17:29:28.253Z,4.00
2022-11-13T17:32:08.570Z,3.80
2022-11-13T17:34:36.624Z,4.78
2022-11-13T17:37:03.506Z,5.05
2022-11-13T17:39:36.638Z,5.38
2022-11-13T17:42:12.381Z,5.18
2022-11-13T17:44:45.586Z,5.50
2022-11-13T17:47:12.504Z,5.60
2022-11-13T17:49:39.282Z,4.78
2022-11-13T17:52:14.568Z,5.15
2022-11-13T17:54:41.320Z,5.38
2022-11-13T17:57:14.477Z,5.43
2022-11-13T17:59:47.497Z,5.78
2022-11-13T18:02:24.577Z,5.95
2022-11-13T18:04:51.386Z,6.47
2022-11-13T18:07:22.702Z,5.68
2022-11-13T18:09:56.475Z,5.30
2022-11-13T18:12:23.517Z,7.00
2022-11-13T18:14:58.573Z,7.13
2022-11-13T18:17:25.415Z,6.30
2022-11-13T18:19:55.998Z,6.80
2022-11-13T18:22:33.491Z,8.35
2022-11-13T18:25:09.531Z,7.78
2022-11-13T18:27:43.610Z,7.47
2022-11-13T18:30:10.767Z,7.18
2022-11-13T18:32:37.666Z,7.32
2022-11-13T18:35:11.525Z,7.70
2022-11-13T18:37:48.643Z,7.00
2022-11-13T18:40:15.641Z,6.55
2022-11-13T18:42:42.589Z,7.43
2022-11-13T18:45:16.574Z,7.82
2022-11-13T18:47:43.334Z,8.13
2022-11-13T18:50:10.572Z,8.35
2022-11-13T18:52:43.556Z,9.45
2022-11-13T18:55:10.382Z,10.25
2022-11-13T18:57:37.121Z,9.32
2022-11-13T19:00:11.616Z,9.30
2022-11-13T19:02:39.489Z,8.73
2022-11-13T19:05:06.355Z,7.80
2022-11-13T19:07:39.649Z,8.60
2022-11-13T19:10:06.695Z,8.70
2022-11-13T19:12:33.850Z,7.88
2022-11-13T19:15:08.727Z,6.80
2022-11-13T19:17:35.606Z,7.65
2022-11-13T19:20:02.466Z,8.25
2022-11-13T19:22:35.794Z,8.38
2022-11-13T19:25:03.458Z,7.55
2022-11-13T19:27:42.715Z,8.25
2022-11-13T19:30:09.881Z,7.45
2022-11-13T19:32:37.037Z,7.57
2022-11-13T19:35:17.669Z,7.07
2022-11-13T19:37:44.512Z,8.32
2022-11-13T19:40:18.805Z,7.78
2022-11-13T19:42:45.674Z,6.78
2022-11-13T19:45:18.644Z,7.68
2022-11-13T19:47:45.528Z,6.78
2022-11-13T19:50:25.665Z,7.82
2022-11-13T19:52:52.976Z,6.82
2022-11-13T19:55:26.843Z,7.38
2022-11-13T19:57:58.831Z,7.50
2022-11-13T20:00:25.598Z,6.97
2022-11-13T20:03:06.529Z,7.20
2022-11-13T20:05:34.653Z,6.05
2022-11-13T20:08:08.824Z,6.75
2022-11-13T20:10:35.645Z,6.78
2022-11-13T20:13:02.505Z,6.80
2022-11-13T20:15:35.720Z,6.90
2022-11-13T20:18:14.808Z,6.80
2022-11-13T20:20:44.170Z,6.85
2022-11-13T20:23:21.834Z,7.53
2022-11-13T20:26:13.669Z,6.80
2022-11-13T20:28:46.878Z,6.70
2022-11-13T20:31:19.459Z,6.60
2022-11-13T20:33:53.768Z,6.25
2022-11-13T20:36:21.280Z,7.63
2022-11-13T20:38:53.287Z,6.63
2022-11-13T20:41:30.738Z,7.75
2022-11-13T20:44:01.740Z,7.60
2022-11-13T20:46:29.303Z,8.18
2022-11-13T20:49:02.821Z,7.47
2022-11-13T20:51:29.734Z,7.70
2022-11-13T20:53:56.895Z,7.18
2022-11-13T20:56:31.889Z,6.78
2022-11-13T20:58:58.830Z,7.53
2022-11-13T21:01:27.700Z,8.40
2022-11-13T21:04:02.787Z,8.52
2022-11-13T21:06:29.768Z,6.53
2022-11-13T21:09:04.825Z,6.93
2022-11-13T21:11:31.801Z,7.43
2022-11-13T21:13:59.375Z,6.88
2022-11-13T21:16:34.787Z,6.85
2022-11-13T21:19:07.918Z,7.70
2022-11-13T21:21:34.754Z,6.93
2022-11-13T21:24:02.044Z,7.57
2022-11-13T21:26:35.909Z,7.90
2022-11-13T21:29:02.891Z,6.60
2022-11-13T21:31:30.166Z,7.10
2022-11-13T21:34:03.979Z,7.88
2022-11-13T21:36:32.160Z,6.97
2022-11-13T21:38:58.931Z,7.82
2022-11-13T21:41:32.929Z,7.35
2022-11-13T21:44:03.255Z,7.30
2022-11-13T21:46:32.836Z,8.32
2022-11-13T21:49:17.658Z,6.75
2022-11-13T21:51:44.858Z,7.28
2022-11-13T21:54:17.863Z,8.35
2022-11-13T21:56:44.819Z,8.50
2022-11-13T21:59:17.881Z,8.00
2022-11-13T22:01:44.737Z,10.05
2022-11-13T22:04:12.540Z,9.27
2022-11-13T22:06:48.897Z,9.25
2022-11-13T22:09:18.804Z,8.52
2022-11-13T22:11:45.624Z,8.27
2022-11-13T22:14:18.953Z,8.30
2022-11-13T22:16:47.304Z,7.93
2022-11-13T22:19:29.250Z,8.10
2022-11-13T22:21:59.821Z,7.28
2022-11-13T22:24:33.110Z,7.40
2022-11-13T22:27:00.025Z,7.00
2022-11-13T22:29:26.792Z,7.65
2022-11-13T22:31:59.964Z,7.57
2022-11-13T22:34:30.974Z,6.78
2022-11-13T22:37:06.946Z,7.97
2022-11-13T22:39:40.057Z,7.28
2022-11-13T22:42:14.542Z,7.60
2022-11-13T22:44:55.945Z,7.95
2022-11-13T22:47:24.210Z,6.68
2022-11-13T22:49:57.995Z,6.55
2022-11-13T22:52:24.859Z,7.45
2022-11-13T22:54:58.117Z,6.65
2022-11-13T22:57:24.932Z,8.07
2022-11-13T22:59:51.668Z,7.28
2022-11-13T23:02:24.939Z,7.28
2022-11-13T23:05:01.009Z,8.57
2022-11-13T23:07:27.912Z,8.07
2022-11-13T23:09:54.756Z,7.95
2022-11-13T23:12:34.946Z,7.35
2022-11-13T23:15:01.909Z,7.70
2022-11-13T23:17:36.964Z,7.88
2022-11-13T23:20:03.964Z,8.07
2022-11-13T23:22:36.974Z,7.82
2022-11-13T23:25:09.994Z,7.20
2022-11-13T23:27:43.975Z,7.32
2022-11-13T23:30:11.552Z,6.63
2022-11-13T23:32:44.980Z,7.50
2022-11-13T23:35:11.688Z,7.05
2022-11-13T23:37:45.044Z,8.38
2022-11-13T23:40:19.035Z,7.38
2022-11-13T23:42:55.163Z,8.02
2022-11-13T23:45:29.042Z,6.88
2022-11-13T23:48:03.033Z,7.90
2022-11-13T23:50:30.191Z,6.95
2022-11-13T23:53:03.026Z,7.35
2022-11-13T23:55:36.026Z,7.35
2022-11-13T23:58:05.416Z,7.60
